createdAt,value
2018-12-26T00:01:55.716Z,3.30
2018-12-26T00:04:28.117Z,3.30
2018-12-26T00:07:00.415Z,3.30
2018-12-26T00:09:32.756Z,3.30
2018-12-26T00:12:05.643Z,3.40
2018-12-26T00:14:38.022Z,3.50
2018-12-26T00:17:11.216Z,3.50
2018-12-26T00:19:43.445Z,3.60
2018-12-26T00:22:15.916Z,3.60
2018-12-26T00:24:48.250Z,3.50
2018-12-26T00:27:21.901Z,3.50
2018-12-26T00:29:54.498Z,3.50
2018-12-26T00:32:27.065Z,3.50
2018-12-26T00:34:59.776Z,3.50
2018-12-26T00:37:32.455Z,3.50
2018-12-26T00:40:04.996Z,3.50
2018-12-26T00:42:37.998Z,3.50
2018-12-26T00:45:11.395Z,3.40
2018-12-26T00:47:43.935Z,3.40
2018-12-26T00:50:16.535Z,3.40
2018-12-26T00:52:48.996Z,3.40
2018-12-26T00:55:21.835Z,3.40
2018-12-26T00:57:54.375Z,3.40
2018-12-26T01:00:26.705Z,3.40
2018-12-26T01:02:59.496Z,3.30
2018-12-26T01:05:32.406Z,3.30
2018-12-26T01:08:05.515Z,3.30
2018-12-26T01:10:37.797Z,3.30
2018-12-26T01:13:10.355Z,3.30
2018-12-26T01:15:42.935Z,3.30
2018-12-26T01:18:17.033Z,3.30
2018-12-26T01:20:49.536Z,3.30
2018-12-26T01:23:22.177Z,3.30
2018-12-26T01:25:54.815Z,3.20
2018-12-26T01:28:38.320Z,3.20
2018-12-26T01:31:11.357Z,3.20
2018-12-26T01:33:43.935Z,3.20
2018-12-26T01:36:16.396Z,3.10
2018-12-26T01:38:48.876Z,3.10
2018-12-26T01:41:21.236Z,3.10
2018-12-26T01:43:54.155Z,3.10
2018-12-26T01:46:26.295Z,3.10
2018-12-26T01:48:59.116Z,3.10
2018-12-26T01:51:32.096Z,3.10
2018-12-26T01:54:04.735Z,3.10
2018-12-26T01:56:37.636Z,3.10
2018-12-26T01:59:10.096Z,3.10
2018-12-26T02:01:42.535Z,3.10
2018-12-26T02:04:14.655Z,3.10
2018-12-26T02:06:46.796Z,3.10
2018-12-26T02:09:18.678Z,3.10
2018-12-26T02:11:51.741Z,3.10
2018-12-26T02:14:25.836Z,3.10
2018-12-26T02:16:59.674Z,3.20
2018-12-26T02:19:32.236Z,3.20
2018-12-26T02:22:04.473Z,3.20
2018-12-26T02:24:37.026Z,3.20
2018-12-26T02:27:09.736Z,3.20
2018-12-26T02:29:41.795Z,3.20
2018-12-26T02:32:14.516Z,3.20
2018-12-26T02:34:46.595Z,3.20
2018-12-26T02:37:18.756Z,3.20
2018-12-26T02:39:51.115Z,3.30
2018-12-26T02:42:24.096Z,3.30
2018-12-26T02:44:56.895Z,3.30
2018-12-26T02:47:29.515Z,3.30
2018-12-26T02:50:02.155Z,3.30
2018-12-26T02:52:34.916Z,3.30
2018-12-26T02:55:07.577Z,3.30
2018-12-26T02:57:40.275Z,3.40
2018-12-26T03:03:17.060Z,3.30
2018-12-26T03:05:50.061Z,3.30
2018-12-26T03:08:22.490Z,3.30
2018-12-26T03:10:55.281Z,3.30
2018-12-26T03:13:27.920Z,3.30
2018-12-26T03:16:00.219Z,3.20
2018-12-26T03:18:32.902Z,3.20
2018-12-26T03:21:05.201Z,3.20
2018-12-26T03:23:38.160Z,3.10
2018-12-26T03:26:10.582Z,3.10
2018-12-26T03:28:43.460Z,3.10
2018-12-26T03:31:15.542Z,3.10
2018-12-26T03:33:47.781Z,3.00
2018-12-26T03:36:20.522Z,3.10
2018-12-26T03:38:53.661Z,3.00
2018-12-26T03:41:26.642Z,3.00
2018-12-26T03:43:59.425Z,3.00
2018-12-26T03:46:32.382Z,3.00
2018-12-26T03:49:04.772Z,3.00
2018-12-26T03:51:37.861Z,3.00
2018-12-26T03:54:11.119Z,2.90
2018-12-26T03:56:44.080Z,2.90
2018-12-26T03:59:17.220Z,2.80
2018-12-26T04:01:49.629Z,2.80
2018-12-26T04:04:22.040Z,2.80
2018-12-26T04:06:55.506Z,2.70
2018-12-26T04:09:28.261Z,2.70
2018-12-26T04:12:01.221Z,2.70
2018-12-26T04:14:34.166Z,2.60
2018-12-26T04:17:07.142Z,2.60
2018-12-26T04:19:39.720Z,2.50
2018-12-26T04:22:12.102Z,2.50
2018-12-26T04:24:47.801Z,2.50
2018-12-26T04:27:20.562Z,2.40
2018-12-26T04:29:52.911Z,2.40
2018-12-26T04:32:25.091Z,2.30
2018-12-26T04:34:57.581Z,2.30
2018-12-26T04:37:30.154Z,2.30
2018-12-26T04:40:03.148Z,2.20
2018-12-26T04:42:35.400Z,2.30
2018-12-26T04:45:08.481Z,2.20
2018-12-26T04:47:41.564Z,2.20
2018-12-26T04:50:14.183Z,2.30
2018-12-26T04:52:46.204Z,2.30
2018-12-26T04:55:18.642Z,2.30
2018-12-26T04:57:51.181Z,2.30
2018-12-26T05:00:23.754Z,2.30
2018-12-26T05:02:56.463Z,2.30
2018-12-26T05:05:28.762Z,2.30
2018-12-26T05:08:01.380Z,2.30
2018-12-26T05:10:33.963Z,2.40
2018-12-26T05:13:06.802Z,2.40
2018-12-26T05:15:38.636Z,2.40
2018-12-26T05:18:11.681Z,2.50
2018-12-26T05:20:44.720Z,2.50
2018-12-26T05:23:17.381Z,2.60
2018-12-26T05:25:49.581Z,2.60
2018-12-26T05:28:22.360Z,2.60
2018-12-26T05:30:54.963Z,2.70
2018-12-26T05:33:27.721Z,2.70
2018-12-26T05:36:00.185Z,2.80
2018-12-26T05:38:32.741Z,2.80
2018-12-26T05:41:05.863Z,2.80
2018-12-26T05:43:38.221Z,2.80
2018-12-26T05:46:10.801Z,2.80
2018-12-26T05:48:44.085Z,2.80
2018-12-26T05:51:15.986Z,2.80
2018-12-26T05:53:48.420Z,2.80
2018-12-26T05:56:21.361Z,2.80
2018-12-26T05:58:54.322Z,2.80
2018-12-26T06:01:27.300Z,2.80
2018-12-26T06:03:59.681Z,2.80
2018-12-26T06:06:32.261Z,2.80
2018-12-26T06:09:05.941Z,2.80
2018-12-26T06:11:38.500Z,2.80
2018-12-26T06:14:10.461Z,2.80
2018-12-26T06:16:42.800Z,2.80
2018-12-26T06:19:15.503Z,2.70
2018-12-26T06:21:47.901Z,2.70
2018-12-26T06:24:20.401Z,2.70
2018-12-26T06:26:52.798Z,2.80
2018-12-26T06:29:25.040Z,2.80
2018-12-26T06:31:58.022Z,2.80
2018-12-26T06:34:30.641Z,2.90
2018-12-26T06:37:03.620Z,2.90
2018-12-26T06:39:36.017Z,2.90
2018-12-26T06:42:08.180Z,2.90
2018-12-26T06:44:40.075Z,2.90
2018-12-26T06:47:12.400Z,2.90
2018-12-26T06:49:45.423Z,2.90
2018-12-26T06:52:18.501Z,2.90
2018-12-26T06:54:51.120Z,2.90
2018-12-26T06:57:23.780Z,2.90
2018-12-26T06:59:56.401Z,2.90
2018-12-26T07:02:28.996Z,2.90
2018-12-26T07:05:01.716Z,2.90
2018-12-26T07:07:34.640Z,2.80
2018-12-26T07:10:07.601Z,2.80
2018-12-26T07:12:40.740Z,2.80
2018-12-26T07:15:13.081Z,2.80
2018-12-26T07:17:47.442Z,2.80
2018-12-26T07:20:19.781Z,2.80
2018-12-26T07:22:52.278Z,2.80
2018-12-26T07:25:25.041Z,2.90
2018-12-26T07:27:57.180Z,3.00
2018-12-26T07:30:29.861Z,3.10
2018-12-26T07:33:02.340Z,3.30
2018-12-26T07:35:34.760Z,3.50
2018-12-26T07:38:07.161Z,3.70
2018-12-26T07:40:39.460Z,3.80
2018-12-26T07:43:12.080Z,3.90
2018-12-26T07:45:44.241Z,4.10
2018-12-26T07:48:17.061Z,4.20
2018-12-26T07:50:49.655Z,4.30
2018-12-26T07:53:21.901Z,4.40
2018-12-26T07:55:54.161Z,4.70
2018-12-26T07:58:26.801Z,5.20
2018-12-26T08:00:59.544Z,5.40
2018-12-26T08:03:31.785Z,5.70
2018-12-26T08:06:04.529Z,6.00
2018-12-26T08:08:37.100Z,6.10
2018-12-26T08:11:09.681Z,6.00
2018-12-26T08:13:42.640Z,5.90
2018-12-26T08:16:14.792Z,5.80
2018-12-26T08:18:46.861Z,5.90
2018-12-26T08:21:19.473Z,5.80
2018-12-26T08:23:51.881Z,5.80
2018-12-26T08:26:24.560Z,5.60
2018-12-26T08:28:56.900Z,5.50
2018-12-26T08:31:29.411Z,5.40
2018-12-26T08:34:01.580Z,5.40
2018-12-26T08:36:34.440Z,5.40
2018-12-26T08:39:09.380Z,5.50
2018-12-26T08:41:42.660Z,5.80
2018-12-26T08:44:15.621Z,5.90
2018-12-26T08:46:48.561Z,5.80
2018-12-26T08:49:21.220Z,5.70
2018-12-26T08:51:53.233Z,5.70
2018-12-26T08:54:25.863Z,5.60
2018-12-26T08:56:58.621Z,5.80
2018-12-26T08:59:31.339Z,5.90
2018-12-26T09:02:03.380Z,6.10
2018-12-26T09:04:36.083Z,6.30
2018-12-26T09:07:08.660Z,6.50
2018-12-26T09:09:41.070Z,6.90
2018-12-26T09:12:13.420Z,7.50
2018-12-26T09:14:46.320Z,7.90
2018-12-26T09:17:18.980Z,7.90
2018-12-26T09:19:51.440Z,7.70
2018-12-26T09:22:24.881Z,7.30
2018-12-26T09:24:57.521Z,7.50
2018-12-26T09:27:31.429Z,7.40
2018-12-26T09:30:09.283Z,7.70
2018-12-26T09:32:44.101Z,7.80
2018-12-26T09:35:17.121Z,7.60
2018-12-26T09:37:50.340Z,7.40
2018-12-26T09:40:23.282Z,7.30
2018-12-26T09:42:55.600Z,7.20
2018-12-26T09:45:27.940Z,7.10
2018-12-26T09:48:00.259Z,7.20
2018-12-26T09:50:32.559Z,7.30
2018-12-26T09:53:05.259Z,7.40
2018-12-26T09:55:37.879Z,7.40
2018-12-26T09:58:11.593Z,7.40
2018-12-26T10:00:44.239Z,7.60
2018-12-26T10:03:16.937Z,8.20
2018-12-26T10:05:49.339Z,10.00
2018-12-26T10:08:22.180Z,11.70
2018-12-26T10:10:54.640Z,12.50
2018-12-26T10:13:27.619Z,13.80
2018-12-26T10:16:00.139Z,14.80
2018-12-26T10:18:33.559Z,16.10
2018-12-26T10:21:07.140Z,17.20
2018-12-26T10:23:39.779Z,17.10
2018-12-26T10:26:12.259Z,16.00
2018-12-26T10:28:44.740Z,14.70
2018-12-26T10:31:17.380Z,13.90
2018-12-26T10:33:49.880Z,13.40
2018-12-26T10:36:22.122Z,13.20
2018-12-26T10:38:54.643Z,13.10
2018-12-26T10:41:27.138Z,12.80
2018-12-26T10:43:59.359Z,13.20
2018-12-26T10:46:32.260Z,13.00
2018-12-26T10:49:05.240Z,12.50
2018-12-26T10:51:37.680Z,12.10
2018-12-26T10:54:10.259Z,11.70
2018-12-26T10:56:42.820Z,11.40
2018-12-26T10:59:17.359Z,11.30
2018-12-26T11:01:51.943Z,11.30
2018-12-26T11:04:24.279Z,11.10
2018-12-26T11:06:58.500Z,10.80
2018-12-26T11:09:30.702Z,10.60
2018-12-26T11:12:03.460Z,10.30
2018-12-26T11:14:35.759Z,10.40
2018-12-26T11:17:08.413Z,10.80
2018-12-26T11:19:42.344Z,11.20
2018-12-26T11:22:14.800Z,11.20
2018-12-26T11:24:48.121Z,11.60
2018-12-26T11:27:20.739Z,11.90
2018-12-26T11:29:53.559Z,11.60
2018-12-26T11:32:26.223Z,11.30
2018-12-26T11:34:58.679Z,10.90
2018-12-26T11:37:31.137Z,10.70
2018-12-26T11:40:04.081Z,10.80
2018-12-26T11:42:36.499Z,11.00
2018-12-26T11:45:08.840Z,11.70
2018-12-26T11:47:41.400Z,12.50
2018-12-26T11:50:13.940Z,13.60
2018-12-26T11:52:46.017Z,14.70
2018-12-26T11:55:19.521Z,16.00
2018-12-26T11:57:52.701Z,17.00
2018-12-26T12:00:25.203Z,17.30
2018-12-26T12:02:57.541Z,17.80
2018-12-26T12:05:30.659Z,18.70
2018-12-26T12:08:03.160Z,19.70
2018-12-26T12:10:36.779Z,20.80
2018-12-26T12:13:09.526Z,21.70
2018-12-26T12:15:42.319Z,22.40
2018-12-26T12:18:15.279Z,23.00
2018-12-26T12:20:47.965Z,23.70
2018-12-26T12:23:20.520Z,24.20
2018-12-26T12:25:52.881Z,24.60
2018-12-26T12:28:25.880Z,24.80
2018-12-26T12:30:58.941Z,25.10
2018-12-26T12:33:31.117Z,24.30
2018-12-26T12:36:03.760Z,23.70
2018-12-26T12:38:37.142Z,23.10
2018-12-26T12:41:11.620Z,22.90
2018-12-26T12:43:44.800Z,22.80
2018-12-26T12:46:17.221Z,22.30
2018-12-26T12:48:49.840Z,21.90
2018-12-26T12:51:22.480Z,20.60
2018-12-26T12:53:55.225Z,18.80
2018-12-26T12:56:27.540Z,17.70
2018-12-26T12:59:00.600Z,16.40
2018-12-26T13:01:33.059Z,15.60
2018-12-26T13:04:05.799Z,15.50
2018-12-26T13:06:38.341Z,15.40
2018-12-26T13:09:10.960Z,15.50
2018-12-26T13:11:43.780Z,15.90
2018-12-26T13:14:15.756Z,15.80
2018-12-26T13:16:48.239Z,15.70
2018-12-26T13:19:20.941Z,15.20
2018-12-26T13:21:53.839Z,15.00
2018-12-26T13:24:26.479Z,15.00
2018-12-26T13:26:59.138Z,14.60
2018-12-26T13:29:31.459Z,14.10
2018-12-26T13:32:04.580Z,13.80
2018-12-26T13:34:36.621Z,13.70
2018-12-26T13:37:08.535Z,13.60
2018-12-26T13:39:40.561Z,13.30
2018-12-26T13:42:13.222Z,13.00
2018-12-26T13:44:46.680Z,12.70
2018-12-26T13:47:19.640Z,12.30
2018-12-26T13:49:52.007Z,12.40
2018-12-26T13:52:25.200Z,12.60
2018-12-26T13:54:57.520Z,12.40
2018-12-26T13:57:29.880Z,12.40
2018-12-26T14:00:02.378Z,12.60
2018-12-26T14:02:36.419Z,12.60
2018-12-26T14:05:09.099Z,12.90
2018-12-26T14:07:41.200Z,13.10
2018-12-26T14:10:13.380Z,13.20
2018-12-26T14:12:45.603Z,13.10
2018-12-26T14:15:17.766Z,12.60
2018-12-26T14:17:50.244Z,12.60
2018-12-26T14:20:23.021Z,12.80
2018-12-26T14:22:56.056Z,12.60
2018-12-26T14:25:28.799Z,12.20
2018-12-26T14:28:01.442Z,11.40
2018-12-26T14:30:35.260Z,10.60
2018-12-26T14:33:08.902Z,9.70
2018-12-26T14:35:41.199Z,8.90
2018-12-26T14:38:14.340Z,8.20
2018-12-26T14:40:46.420Z,7.50
2018-12-26T14:43:19.461Z,7.00
2018-12-26T14:45:52.300Z,6.60
2018-12-26T14:48:24.920Z,6.30
2018-12-26T14:50:57.198Z,6.00
2018-12-26T14:53:29.861Z,5.70
2018-12-26T14:56:02.219Z,5.50
2018-12-26T14:58:34.680Z,5.30
2018-12-26T15:01:07.023Z,5.20
2018-12-26T15:03:39.760Z,5.00
2018-12-26T15:06:12.260Z,4.90
2018-12-26T15:08:45.220Z,4.80
2018-12-26T15:11:17.179Z,4.70
2018-12-26T15:13:49.779Z,4.60
2018-12-26T15:16:22.838Z,4.40
2018-12-26T15:18:55.685Z,4.30
2018-12-26T15:21:28.280Z,4.20
2018-12-26T15:24:01.439Z,4.20
2018-12-26T15:26:34.146Z,4.10
2018-12-26T15:29:06.819Z,4.00
2018-12-26T15:31:40.162Z,3.90
2018-12-26T15:34:12.141Z,3.80
2018-12-26T15:36:44.817Z,3.70
2018-12-26T15:39:17.701Z,3.70
2018-12-26T15:41:50.159Z,3.60
2018-12-26T15:44:23.300Z,3.50
2018-12-26T15:46:56.204Z,3.50
2018-12-26T15:49:28.840Z,3.40
2018-12-26T15:52:01.240Z,3.40
2018-12-26T15:54:34.900Z,3.30
2018-12-26T15:57:07.159Z,3.30
2018-12-26T15:59:39.808Z,3.30
2018-12-26T16:02:12.619Z,3.30
2018-12-26T16:04:45.040Z,3.30
2018-12-26T16:07:17.740Z,3.20
2018-12-26T16:09:50.149Z,3.20
2018-12-26T16:12:22.839Z,3.20
2018-12-26T16:14:55.299Z,3.20
2018-12-26T16:17:27.730Z,3.20
2018-12-26T16:20:00.560Z,3.20
2018-12-26T16:22:33.620Z,3.20
2018-12-26T16:25:06.679Z,3.20
2018-12-26T16:27:39.001Z,3.20
2018-12-26T16:30:11.799Z,3.20
2018-12-26T16:32:44.499Z,3.20
2018-12-26T16:35:17.380Z,3.20
2018-12-26T16:37:50.201Z,3.10
2018-12-26T16:40:23.479Z,3.10
2018-12-26T16:42:56.119Z,3.10
2018-12-26T16:45:28.761Z,3.00
2018-12-26T16:48:01.220Z,3.00
2018-12-26T16:50:34.000Z,3.00
2018-12-26T16:53:06.800Z,3.00
2018-12-26T16:55:40.246Z,3.00
2018-12-26T16:58:12.763Z,2.90
2018-12-26T17:00:45.360Z,2.90
2018-12-26T17:03:18.181Z,2.80
2018-12-26T17:05:51.281Z,2.80
2018-12-26T17:08:24.739Z,2.70
2018-12-26T17:10:57.421Z,2.70
2018-12-26T17:13:29.839Z,2.70
2018-12-26T17:16:02.800Z,2.70
2018-12-26T17:18:35.161Z,2.60
2018-12-26T17:21:07.620Z,2.60
2018-12-26T17:23:39.820Z,2.60
2018-12-26T17:26:11.999Z,2.60
2018-12-26T17:28:45.581Z,2.60
2018-12-26T17:31:18.060Z,2.50
2018-12-26T17:33:50.340Z,2.50
2018-12-26T17:36:22.861Z,2.50
2018-12-26T17:38:55.600Z,2.40
2018-12-26T17:41:29.379Z,2.40
2018-12-26T17:44:02.241Z,2.40
2018-12-26T17:46:34.899Z,2.30
2018-12-26T17:49:07.519Z,2.30
2018-12-26T17:51:40.099Z,2.30
2018-12-26T17:54:52.940Z,2.40
2018-12-26T17:57:39.122Z,2.40
2018-12-26T18:00:30.979Z,2.40
2018-12-26T18:03:03.601Z,2.50
2018-12-26T18:05:35.812Z,2.50
2018-12-26T18:08:08.320Z,2.50
2018-12-26T18:10:41.200Z,2.60
2018-12-26T18:13:13.453Z,2.70
2018-12-26T18:15:45.759Z,2.80
2018-12-26T18:18:18.440Z,2.90
2018-12-26T18:20:51.902Z,3.00
2018-12-26T18:23:24.738Z,3.10
2018-12-26T18:25:57.074Z,3.20
2018-12-26T18:28:30.040Z,3.20
2018-12-26T18:31:02.660Z,3.30
2018-12-26T18:33:35.093Z,3.40
2018-12-26T18:36:10.557Z,3.50
2018-12-26T18:38:43.921Z,3.60
2018-12-26T18:41:16.087Z,3.60
2018-12-26T18:43:48.800Z,3.70
2018-12-26T18:46:21.402Z,3.80
2018-12-26T18:48:54.001Z,3.80
2018-12-26T18:51:26.200Z,3.90
2018-12-26T18:53:59.619Z,4.00
2018-12-26T18:56:32.240Z,4.10
2018-12-26T18:59:05.400Z,4.10
2018-12-26T19:01:37.719Z,4.20
2018-12-26T19:04:10.659Z,4.30
2018-12-26T19:06:43.160Z,4.40
2018-12-26T19:09:19.282Z,4.40
2018-12-26T19:11:51.919Z,4.50
2018-12-26T19:14:24.579Z,4.60
2018-12-26T19:16:57.201Z,4.70
2018-12-26T19:19:32.459Z,4.80
2018-12-26T19:22:05.205Z,4.90
2018-12-26T19:24:38.019Z,4.90
2018-12-26T19:27:12.005Z,5.00
2018-12-26T19:29:47.679Z,5.10
2018-12-26T19:32:20.920Z,5.10
2018-12-26T19:34:53.383Z,5.10
2018-12-26T19:37:25.980Z,5.10
2018-12-26T19:39:59.301Z,5.10
2018-12-26T19:42:37.335Z,5.10
2018-12-26T19:45:06.200Z,5.00
2018-12-26T19:47:38.820Z,5.00
2018-12-26T19:50:12.287Z,5.00
2018-12-26T19:52:48.054Z,5.00
2018-12-26T19:55:20.500Z,5.00
2018-12-26T19:57:53.200Z,5.10
2018-12-26T20:00:38.020Z,5.10
2018-12-26T20:03:10.379Z,5.10
2018-12-26T20:05:43.299Z,5.20
2018-12-26T20:08:16.200Z,5.30
2018-12-26T20:10:48.879Z,5.40
2018-12-26T20:13:24.103Z,5.40
2018-12-26T20:16:00.265Z,5.40
2018-12-26T20:18:35.398Z,5.40
2018-12-26T20:21:09.079Z,5.30
2018-12-26T20:23:42.681Z,5.30
2018-12-26T20:26:14.900Z,5.30
2018-12-26T20:28:47.340Z,5.30
2018-12-26T20:31:19.610Z,5.30
2018-12-26T20:33:54.180Z,5.20
2018-12-26T20:36:29.482Z,5.20
2018-12-26T20:39:01.900Z,5.30
2018-12-26T20:41:36.567Z,5.30
2018-12-26T20:44:09.399Z,5.30
2018-12-26T20:46:41.480Z,5.30
2018-12-26T20:49:15.009Z,5.30
2018-12-26T20:51:47.940Z,5.30
2018-12-26T20:54:23.046Z,5.40
2018-12-26T20:56:56.843Z,5.30
2018-12-26T20:59:29.540Z,5.30
2018-12-26T21:02:05.808Z,5.30
2018-12-26T21:04:36.871Z,5.30
2018-12-26T21:07:47.114Z,5.20
2018-12-26T21:10:20.442Z,5.20
2018-12-26T21:12:53.221Z,5.10
2018-12-26T21:15:26.891Z,5.10
2018-12-26T21:18:00.499Z,5.00
2018-12-26T21:20:33.701Z,4.90
2018-12-26T21:23:06.200Z,4.90
2018-12-26T21:25:38.500Z,4.80
2018-12-26T21:28:11.140Z,4.80
2018-12-26T21:30:43.452Z,4.70
2018-12-26T21:33:16.259Z,4.60
2018-12-26T21:35:48.879Z,4.50
2018-12-26T21:38:21.579Z,4.50
2018-12-26T21:40:55.101Z,4.40
2018-12-26T21:43:28.799Z,4.30
2018-12-26T21:46:01.844Z,4.20
2018-12-26T21:48:34.628Z,4.10
2018-12-26T21:51:07.299Z,4.10
2018-12-26T21:53:39.460Z,4.00
2018-12-26T21:56:12.301Z,4.00
2018-12-26T21:58:44.720Z,4.10
2018-12-26T22:01:17.059Z,4.10
2018-12-26T22:03:49.853Z,4.20
2018-12-26T22:06:23.339Z,4.20
2018-12-26T22:08:56.260Z,4.20
2018-12-26T22:11:40.316Z,4.10
2018-12-26T22:14:12.719Z,4.10
2018-12-26T22:16:45.679Z,4.10
2018-12-26T22:19:17.940Z,4.00
2018-12-26T22:21:50.841Z,4.00
2018-12-26T22:24:23.264Z,3.90
2018-12-26T22:26:56.241Z,3.90
2018-12-26T22:29:28.738Z,3.90
2018-12-26T22:32:01.418Z,4.00
2018-12-26T22:34:34.159Z,4.10
2018-12-26T22:37:06.539Z,4.20
2018-12-26T22:39:38.783Z,4.30
2018-12-26T22:42:12.420Z,4.30
2018-12-26T22:44:44.760Z,4.40
2018-12-26T22:47:17.659Z,4.50
2018-12-26T22:49:50.963Z,4.50
2018-12-26T22:52:23.639Z,4.60
2018-12-26T22:54:55.780Z,4.60
2018-12-26T22:57:28.561Z,4.60
2018-12-26T23:00:22.979Z,4.70
2018-12-26T23:02:56.245Z,4.80
2018-12-26T23:05:28.559Z,4.80
2018-12-26T23:08:01.219Z,4.90
2018-12-26T23:10:33.841Z,5.00
2018-12-26T23:13:06.499Z,5.00
2018-12-26T23:15:39.440Z,5.00
2018-12-26T23:18:13.561Z,5.00
2018-12-26T23:20:46.986Z,5.00
2018-12-26T23:23:19.639Z,5.00
2018-12-26T23:25:52.159Z,5.00
2018-12-26T23:28:25.300Z,5.00
2018-12-26T23:30:58.160Z,5.00
2018-12-26T23:33:31.120Z,5.00
2018-12-26T23:36:03.783Z,5.00
2018-12-26T23:38:36.879Z,5.10
2018-12-26T23:41:09.137Z,5.10
2018-12-26T23:43:42.023Z,5.10
2018-12-26T23:46:14.664Z,5.10
2018-12-26T23:48:47.360Z,5.10
2018-12-26T23:51:19.599Z,5.10
2018-12-26T23:53:51.939Z,5.10
2018-12-26T23:56:24.349Z,5.20
2018-12-26T23:58:57.099Z,5.20
